Dover Annex, New Jersey
Current Conditions -  °F | °C
As of 4:45 PM on Thursday 18 Dec 2014 (Local Time) from KMMU Reporting Station
Overcast Overcast  
Wind Chill: 32°   Ceiling: 4000
Heat Index: 39°   Visibility: 10mi
Dew Point: 27°   Wind: 12mph
Humidity: 61%   Direction: 310°NW
Pressure: 29.99"   Gusts: NA
Location:  40.9293°N, 74.5472°W
Report Text: KMMU 182145Z 31010KT 10SM OVC040 04/M03 A2999
Loading
Personal Weather Stations






























Interactive Weather Map New forecast layout! Learn more

10-Day Weather Forecast

Advertisements
Track Severe Weather on mobile